createdAt,value
2022-10-15T00:01:24.013Z,16.98
2022-10-15T00:03:51.252Z,14.70
2022-10-15T00:06:21.111Z,13.93
2022-10-15T00:08:48.510Z,14.52
2022-10-15T00:11:21.901Z,16.65
2022-10-15T00:13:50.490Z,12.48
2022-10-15T00:16:20.210Z,20.25
2022-10-15T00:18:48.232Z,19.08
2022-10-15T00:21:17.793Z,15.55
2022-10-15T00:23:46.010Z,21.20
2022-10-15T00:26:24.441Z,17.77
2022-10-15T00:28:53.071Z,16.50
2022-10-15T00:31:26.525Z,15.05
2022-10-15T00:33:55.224Z,25.92
2022-10-15T00:36:26.412Z,23.10
2022-10-15T00:38:53.584Z,24.10
2022-10-15T00:41:23.312Z,25.90
2022-10-15T00:43:53.762Z,26.05
2022-10-15T00:46:35.883Z,21.90
2022-10-15T00:49:18.112Z,21.20
2022-10-15T00:52:07.841Z,20.27
2022-10-15T00:54:59.935Z,14.80
2022-10-15T00:57:27.615Z,15.07
2022-10-15T01:00:00.775Z,12.23
2022-10-15T01:02:27.827Z,12.15
2022-10-15T01:04:55.918Z,11.38
2022-10-15T01:07:22.926Z,10.77
2022-10-15T01:09:50.705Z,9.85
2022-10-15T01:12:42.178Z,12.50
2022-10-15T01:15:14.309Z,13.50
2022-10-15T01:17:55.903Z,9.95
2022-10-15T01:20:49.755Z,17.38
2022-10-15T01:24:06.037Z,11.75
2022-10-15T01:26:36.141Z,12.23
2022-10-15T01:29:27.711Z,12.68
2022-10-15T01:32:14.275Z,8.57
2022-10-15T01:35:07.417Z,8.77
2022-10-15T01:37:50.294Z,11.35
2022-10-15T01:40:23.444Z,14.35
2022-10-15T01:43:12.574Z,7.10
2022-10-15T01:45:57.160Z,13.50
2022-10-15T01:48:48.787Z,8.95
2022-10-15T01:51:18.703Z,12.15
2022-10-15T01:53:47.358Z,9.00
2022-10-15T01:56:20.254Z,8.55
2022-10-15T01:58:50.642Z,12.60
2022-10-15T02:01:17.926Z,16.38
2022-10-15T02:03:52.609Z,13.75
2022-10-15T02:06:37.209Z,11.60
2022-10-15T02:09:29.084Z,11.25
2022-10-15T02:12:24.371Z,11.68
2022-10-15T02:15:12.116Z,8.15
2022-10-15T02:17:51.231Z,9.23
2022-10-15T02:20:25.283Z,10.80
2022-10-15T02:23:03.960Z,13.52
2022-10-15T02:25:33.833Z,17.15
2022-10-15T02:28:04.043Z,12.35
2022-10-15T02:30:32.359Z,13.00
2022-10-15T02:33:00.456Z,11.43
2022-10-15T02:35:28.407Z,16.00
2022-10-15T02:37:58.580Z,9.23
2022-10-15T02:40:29.626Z,10.30
2022-10-15T02:42:57.200Z,10.57
2022-10-15T02:45:24.166Z,23.05
2022-10-15T02:47:51.212Z,14.57
2022-10-15T02:50:18.999Z,19.55
2022-10-15T02:52:45.874Z,13.38
2022-10-15T02:55:12.812Z,11.70
2022-10-15T02:57:39.732Z,9.98
2022-10-15T03:00:08.694Z,7.03
2022-10-15T03:02:35.966Z,11.43
2022-10-15T03:05:03.314Z,11.90
2022-10-15T03:07:30.383Z,8.68
2022-10-15T03:09:57.345Z,11.48
2022-10-15T03:12:26.122Z,7.43
2022-10-15T03:14:54.255Z,16.27
2022-10-15T03:17:22.235Z,12.60
2022-10-15T03:19:49.658Z,8.48
2022-10-15T03:22:17.035Z,7.78
2022-10-15T03:24:50.786Z,13.70
2022-10-15T03:27:23.610Z,10.65
2022-10-15T03:29:50.916Z,11.40
2022-10-15T03:32:17.767Z,15.90
2022-10-15T03:34:44.983Z,23.80
2022-10-15T03:37:14.251Z,16.65
2022-10-15T03:39:42.186Z,13.40
2022-10-15T03:42:10.098Z,28.90
2022-10-15T03:44:45.363Z,22.45
2022-10-15T03:47:16.107Z,14.55
2022-10-15T03:49:47.827Z,15.73
2022-10-15T03:52:16.048Z,16.00
2022-10-15T03:54:43.895Z,32.83
2022-10-15T03:57:14.462Z,19.25
2022-10-15T03:59:59.978Z,18.20
2022-10-15T04:02:31.773Z,20.90
2022-10-15T04:04:59.106Z,15.35
2022-10-15T04:07:26.715Z,16.17
2022-10-15T04:09:53.642Z,23.25
2022-10-15T04:12:25.400Z,24.25
2022-10-15T04:14:52.660Z,21.10
2022-10-15T04:17:19.714Z,10.88
2022-10-15T04:19:46.851Z,20.02
2022-10-15T04:22:15.278Z,14.07
2022-10-15T04:24:47.637Z,17.35
2022-10-15T04:27:25.251Z,12.02
2022-10-15T04:29:52.303Z,7.03
2022-10-15T04:32:19.716Z,8.75
2022-10-15T04:34:48.184Z,11.73
2022-10-15T04:37:16.775Z,11.65
2022-10-15T04:39:43.763Z,12.32
2022-10-15T04:42:13.485Z,9.85
2022-10-15T04:44:40.743Z,9.10
2022-10-15T04:47:07.689Z,11.93
2022-10-15T04:49:42.801Z,11.73
2022-10-15T04:52:26.774Z,9.52
2022-10-15T04:55:04.901Z,10.23
2022-10-15T04:57:32.023Z,12.10
2022-10-15T04:59:59.151Z,16.23
2022-10-15T05:02:33.279Z,12.20
2022-10-15T05:05:23.553Z,20.73
2022-10-15T05:08:01.129Z,20.58
2022-10-15T05:10:29.376Z,19.75
2022-10-15T05:12:58.105Z,22.50
2022-10-15T05:15:31.096Z,18.75
2022-10-15T05:17:58.103Z,10.55
2022-10-15T05:20:32.586Z,19.05
2022-10-15T05:22:59.573Z,17.63
2022-10-15T05:25:31.472Z,29.30
2022-10-15T05:27:58.992Z,27.08
2022-10-15T05:30:25.965Z,30.45
2022-10-15T05:32:55.033Z,20.75
2022-10-15T05:35:23.482Z,19.40
2022-10-15T05:37:58.633Z,28.23
2022-10-15T05:40:25.704Z,13.90
2022-10-15T05:43:07.332Z,15.63
2022-10-15T05:45:34.312Z,14.70
2022-10-15T05:48:06.434Z,18.17
2022-10-15T05:50:34.616Z,16.55
2022-10-15T05:53:03.792Z,27.38
2022-10-15T05:55:44.433Z,16.05
2022-10-15T05:58:11.589Z,21.88
2022-10-15T06:00:39.756Z,14.48
2022-10-15T06:03:06.701Z,20.17
2022-10-15T06:05:33.830Z,31.38
2022-10-15T06:08:00.813Z,19.60
2022-10-15T06:10:28.656Z,21.25
2022-10-15T06:12:55.638Z,12.70
2022-10-15T06:15:22.700Z,10.60
2022-10-15T06:17:53.942Z,13.07
2022-10-15T06:20:21.029Z,14.23
2022-10-15T06:22:47.946Z,13.18
2022-10-15T06:25:15.007Z,17.85
2022-10-15T06:27:41.918Z,24.45
2022-10-15T06:30:09.423Z,15.38
2022-10-15T06:32:36.704Z,26.38
2022-10-15T06:35:03.798Z,11.07
2022-10-15T06:37:33.587Z,14.25
2022-10-15T06:40:00.922Z,14.75
2022-10-15T06:42:27.820Z,15.50
2022-10-15T06:44:55.781Z,15.85
2022-10-15T06:47:23.059Z,15.13
2022-10-15T06:49:50.286Z,12.68
2022-10-15T06:52:17.255Z,11.32
2022-10-15T06:54:44.219Z,10.40
2022-10-15T06:57:11.201Z,8.00
2022-10-15T06:59:41.206Z,12.23
2022-10-15T07:02:11.824Z,8.73
2022-10-15T07:04:38.743Z,10.20
2022-10-15T07:07:06.054Z,13.48
2022-10-15T07:09:34.432Z,10.48
2022-10-15T07:12:01.415Z,14.32
2022-10-15T07:14:29.552Z,16.10
2022-10-15T07:16:56.465Z,19.27
2022-10-15T07:19:23.428Z,13.68
2022-10-15T07:21:50.805Z,18.67
2022-10-15T07:24:18.223Z,9.77
2022-10-15T07:26:47.589Z,13.85
2022-10-15T07:29:14.543Z,29.67
2022-10-15T07:31:41.579Z,16.25
2022-10-15T07:34:08.485Z,20.75
2022-10-15T07:36:35.380Z,16.52
2022-10-15T07:39:02.512Z,16.10
2022-10-15T07:41:31.022Z,22.17
2022-10-15T07:43:57.961Z,25.98
2022-10-15T07:46:24.946Z,17.30
2022-10-15T07:48:55.943Z,19.30
2022-10-15T07:51:22.887Z,18.23
2022-10-15T07:53:49.866Z,23.85
2022-10-15T07:56:16.978Z,14.55
2022-10-15T07:58:51.431Z,17.67
2022-10-15T08:01:20.277Z,13.93
2022-10-15T08:03:48.005Z,14.63
2022-10-15T08:06:15.292Z,20.35
2022-10-15T08:08:42.198Z,13.70
2022-10-15T08:11:11.778Z,13.27
2022-10-15T08:13:41.427Z,9.13
2022-10-15T08:16:09.819Z,12.10
2022-10-15T08:18:37.770Z,7.45
2022-10-15T08:21:06.839Z,13.25
2022-10-15T08:23:34.922Z,6.82
2022-10-15T08:26:02.300Z,12.98
2022-10-15T08:28:30.135Z,10.70
2022-10-15T08:31:04.574Z,7.72
2022-10-15T08:33:34.574Z,4.25
2022-10-15T08:36:01.536Z,13.57
2022-10-15T08:38:31.025Z,11.55
2022-10-15T08:41:00.333Z,10.75
2022-10-15T08:43:38.139Z,9.75
2022-10-15T08:46:11.985Z,8.00
2022-10-15T08:48:51.158Z,18.67
2022-10-15T08:51:21.814Z,13.23
2022-10-15T08:54:03.905Z,9.75
2022-10-15T08:56:34.929Z,14.85
2022-10-15T08:59:31.835Z,10.05
2022-10-15T09:02:04.064Z,11.70
2022-10-15T09:04:34.858Z,7.68
2022-10-15T09:07:13.236Z,10.30
2022-10-15T09:09:49.612Z,14.18
2022-10-15T09:12:46.202Z,17.90
2022-10-15T09:15:17.388Z,10.93
2022-10-15T09:17:47.858Z,16.42
2022-10-15T09:20:26.848Z,8.60
2022-10-15T09:22:54.362Z,15.20
2022-10-15T09:25:26.429Z,11.45
2022-10-15T09:28:09.499Z,10.63
2022-10-15T09:30:51.184Z,12.65
2022-10-15T09:33:27.279Z,16.45
2022-10-15T09:36:04.851Z,21.90
2022-10-15T09:38:46.969Z,17.23
2022-10-15T09:41:47.374Z,11.48
2022-10-15T09:44:17.400Z,16.00
2022-10-15T09:46:50.735Z,14.15
2022-10-15T09:49:23.998Z,11.82
2022-10-15T09:52:04.708Z,15.18
2022-10-15T09:54:40.625Z,9.27
2022-10-15T09:57:10.432Z,14.18
2022-10-15T09:59:37.445Z,14.48
2022-10-15T10:02:19.732Z,9.38
2022-10-15T10:04:46.783Z,14.15
2022-10-15T10:07:32.458Z,9.60
2022-10-15T10:10:27.107Z,13.18
2022-10-15T10:12:56.186Z,11.45
2022-10-15T10:15:34.545Z,7.85
2022-10-15T10:18:02.430Z,12.77
2022-10-15T10:20:32.040Z,6.68
2022-10-15T10:23:01.953Z,10.88
2022-10-15T10:25:46.893Z,7.00
2022-10-15T10:28:25.486Z,7.47
2022-10-15T10:30:58.547Z,9.32
2022-10-15T10:33:42.483Z,18.67
2022-10-15T10:36:30.880Z,9.63
2022-10-15T10:39:15.732Z,9.88
2022-10-15T10:41:57.580Z,9.10
2022-10-15T10:44:34.214Z,15.32
2022-10-15T10:47:08.094Z,19.15
2022-10-15T10:49:41.027Z,24.90
2022-10-15T10:52:32.313Z,24.00
2022-10-15T10:55:05.235Z,18.40
2022-10-15T10:57:43.308Z,17.25
2022-10-15T11:00:33.780Z,24.48
2022-10-15T11:03:01.225Z,23.20
2022-10-15T11:05:34.161Z,29.50
2022-10-15T11:08:08.569Z,24.02
2022-10-15T11:10:46.380Z,18.15
2022-10-15T11:13:39.220Z,25.98
2022-10-15T11:16:10.023Z,16.53
2022-10-15T11:18:51.255Z,21.38
2022-10-15T11:21:53.865Z,16.65
2022-10-15T11:24:49.129Z,15.52
2022-10-15T11:27:48.493Z,13.18
2022-10-15T11:30:39.933Z,20.45
2022-10-15T11:33:08.443Z,17.63
2022-10-15T11:35:53.422Z,19.42
2022-10-15T11:38:44.115Z,27.70
2022-10-15T11:42:02.033Z,27.75
2022-10-15T11:44:55.442Z,17.45
2022-10-15T11:47:46.979Z,20.10
2022-10-15T11:50:41.013Z,14.15
2022-10-15T11:53:26.316Z,27.25
2022-10-15T11:56:34.982Z,27.30
2022-10-15T11:59:37.856Z,18.33
2022-10-15T12:02:18.038Z,19.02
2022-10-15T12:04:48.654Z,15.13
2022-10-15T12:07:41.417Z,14.13
2022-10-15T12:10:13.139Z,8.23
2022-10-15T12:13:06.409Z,15.45
2022-10-15T12:15:45.127Z,10.02
2022-10-15T12:18:18.390Z,10.73
2022-10-15T12:20:46.436Z,10.15
2022-10-15T12:23:39.181Z,7.80
2022-10-15T12:26:26.170Z,11.35
2022-10-15T12:28:58.397Z,11.00
2022-10-15T12:31:48.438Z,10.10
2022-10-15T12:34:41.267Z,12.95
2022-10-15T12:37:17.863Z,8.77
2022-10-15T12:42:40.151Z,14.27
2022-10-15T12:45:21.003Z,11.98
2022-10-15T12:47:55.105Z,10.80
2022-10-15T12:50:23.474Z,13.48
2022-10-15T12:53:15.347Z,12.70
2022-10-15T12:55:42.276Z,12.43
2022-10-15T12:58:42.408Z,11.10
2022-10-15T13:01:15.559Z,10.60
2022-10-15T13:04:01.448Z,16.23
2022-10-15T13:06:43.970Z,10.23
2022-10-15T13:09:30.595Z,8.82
2022-10-15T13:12:00.253Z,10.20
2022-10-15T13:14:49.748Z,10.05
2022-10-15T13:17:19.591Z,10.68
2022-10-15T13:19:53.259Z,10.77
2022-10-15T13:22:23.881Z,8.73
2022-10-15T13:24:51.449Z,16.63
2022-10-15T13:27:33.176Z,8.50
2022-10-15T13:30:05.466Z,10.65
2022-10-15T13:32:52.268Z,9.88
2022-10-15T13:35:22.133Z,8.07
2022-10-15T13:37:49.533Z,13.95
2022-10-15T13:40:24.095Z,13.73
2022-10-15T13:43:02.796Z,9.68
2022-10-15T13:45:30.539Z,11.75
2022-10-15T13:47:57.618Z,8.13
2022-10-15T13:50:36.324Z,8.77
2022-10-15T13:53:42.418Z,13.70
2022-10-15T13:56:25.253Z,12.40
2022-10-15T13:58:53.943Z,18.05
2022-10-15T14:01:23.260Z,11.23
2022-10-15T14:03:51.475Z,16.70
2022-10-15T14:06:33.709Z,9.38
2022-10-15T14:09:27.093Z,9.68
2022-10-15T14:11:57.944Z,13.52
2022-10-15T14:14:46.970Z,13.05
2022-10-15T14:17:23.337Z,15.60
2022-10-15T14:22:49.687Z,17.77
2022-10-15T14:25:25.597Z,13.90
2022-10-15T14:27:53.054Z,26.55
2022-10-15T14:30:33.179Z,22.42
2022-10-15T14:33:00.312Z,20.98
2022-10-15T14:35:36.632Z,23.35
2022-10-15T14:38:26.079Z,22.15
2022-10-15T14:41:07.933Z,19.02
2022-10-15T14:43:38.467Z,21.35
2022-10-15T14:46:11.666Z,32.53
2022-10-15T14:48:40.787Z,20.70
2022-10-15T14:51:15.589Z,24.92
2022-10-15T14:53:46.930Z,24.63
2022-10-15T14:56:34.180Z,23.10
2022-10-15T15:01:31.855Z,17.77
2022-10-15T15:03:58.850Z,22.33
2022-10-15T15:06:25.828Z,16.02
2022-10-15T15:08:52.963Z,23.55
2022-10-15T15:11:24.294Z,19.20
2022-10-15T15:13:52.360Z,21.15
2022-10-15T15:16:19.670Z,22.65
2022-10-15T15:18:49.074Z,27.98
2022-10-15T15:21:21.520Z,29.10
2022-10-15T15:23:49.030Z,27.13
2022-10-15T15:26:15.973Z,25.10
2022-10-15T15:28:42.941Z,23.10
2022-10-15T15:31:17.170Z,32.00
2022-10-15T15:33:44.348Z,19.95
2022-10-15T15:36:19.100Z,22.55
2022-10-15T15:38:50.808Z,27.17
2022-10-15T15:41:19.696Z,25.58
2022-10-15T15:43:47.272Z,22.25
2022-10-15T15:46:14.735Z,24.13
2022-10-15T15:48:41.924Z,28.45
2022-10-15T15:51:22.041Z,26.38
2022-10-15T15:53:49.278Z,21.42
2022-10-15T15:56:16.395Z,24.17
2022-10-15T15:58:43.786Z,24.40
2022-10-15T16:01:10.758Z,26.25
2022-10-15T16:03:38.262Z,25.60
2022-10-15T16:06:07.228Z,28.90
2022-10-15T16:08:35.548Z,25.33
2022-10-15T16:11:05.191Z,31.08
2022-10-15T16:13:32.726Z,31.23
2022-10-15T16:15:59.799Z,40.47
2022-10-15T16:18:26.696Z,32.75
2022-10-15T16:20:53.857Z,31.33
2022-10-15T16:23:20.764Z,41.00
2022-10-15T16:25:47.653Z,29.77
2022-10-15T16:28:14.852Z,27.98
2022-10-15T16:30:41.895Z,22.55
2022-10-15T16:35:40.731Z,31.75
2022-10-15T16:38:08.919Z,29.65
2022-10-15T16:40:35.946Z,25.33
2022-10-15T16:43:03.110Z,39.85
2022-10-15T16:45:30.140Z,31.80
2022-10-15T16:47:57.242Z,24.40
2022-10-15T16:50:24.193Z,32.95
2022-10-15T16:52:51.137Z,27.52
2022-10-15T16:55:18.185Z,30.17
2022-10-15T16:57:45.220Z,28.33
2022-10-15T17:00:12.570Z,29.05
2022-10-15T17:02:39.656Z,31.98
2022-10-15T17:05:07.230Z,23.13
2022-10-15T17:07:34.258Z,26.45
2022-10-15T17:10:01.782Z,33.50
2022-10-15T17:12:30.322Z,32.45
2022-10-15T17:14:57.349Z,23.25
2022-10-15T17:17:24.357Z,26.08
2022-10-15T17:19:51.365Z,26.15
2022-10-15T17:22:18.327Z,26.98
2022-10-15T17:24:45.297Z,29.45
2022-10-15T17:27:12.723Z,30.33
2022-10-15T17:29:42.546Z,30.42
2022-10-15T17:32:09.462Z,25.27
2022-10-15T17:34:37.171Z,22.35
2022-10-15T17:37:04.339Z,31.50
2022-10-15T17:39:31.325Z,28.90
2022-10-15T17:41:58.397Z,31.42
2022-10-15T17:44:25.338Z,30.70
2022-10-15T17:46:52.946Z,43.22
2022-10-15T17:49:26.306Z,31.33
2022-10-15T17:51:53.310Z,28.45
2022-10-15T17:54:20.294Z,37.67
2022-10-15T17:56:48.695Z,28.90
2022-10-15T17:59:15.924Z,32.25
2022-10-15T18:02:00.563Z,29.25
2022-10-15T18:04:30.453Z,34.67
2022-10-15T18:06:57.546Z,28.20
2022-10-15T18:09:25.895Z,30.85
2022-10-15T18:11:57.562Z,29.35
2022-10-15T18:14:31.618Z,39.72
2022-10-15T18:16:58.978Z,31.17
2022-10-15T18:19:26.879Z,32.92
2022-10-15T18:21:55.573Z,39.35
2022-10-15T18:24:23.752Z,35.00
2022-10-15T18:26:51.610Z,34.15
2022-10-15T18:29:19.491Z,30.73
2022-10-15T18:31:47.388Z,30.33
2022-10-15T18:34:14.427Z,33.42
2022-10-15T18:36:43.636Z,33.40
2022-10-15T18:39:11.343Z,30.58
2022-10-15T18:41:40.196Z,31.80
2022-10-15T18:44:13.154Z,30.92
2022-10-15T18:46:42.289Z,28.60
2022-10-15T18:49:09.569Z,39.05
2022-10-15T18:51:37.106Z,25.63
2022-10-15T18:54:04.674Z,38.97
2022-10-15T18:56:32.097Z,25.25
2022-10-15T18:58:59.077Z,26.10
2022-10-15T19:01:29.565Z,18.15
2022-10-15T19:03:58.854Z,25.42
2022-10-15T19:06:29.424Z,20.33
2022-10-15T19:08:58.028Z,20.13
2022-10-15T19:11:30.350Z,22.73
2022-10-15T19:14:00.567Z,17.33
2022-10-15T19:16:28.514Z,20.35
2022-10-15T19:19:03.623Z,22.25
2022-10-15T19:21:32.403Z,23.63
2022-10-15T19:24:00.149Z,20.38
2022-10-15T19:26:28.560Z,18.10
2022-10-15T19:28:57.392Z,18.85
2022-10-15T19:31:29.903Z,17.85
2022-10-15T19:34:00.545Z,19.05
2022-10-15T19:36:35.155Z,14.85
2022-10-15T19:39:08.112Z,16.08
2022-10-15T19:41:39.800Z,17.73
2022-10-15T19:44:08.283Z,16.35
2022-10-15T19:46:38.818Z,18.77
2022-10-15T19:49:07.490Z,18.38
2022-10-15T19:51:35.110Z,14.63
2022-10-15T19:54:02.053Z,18.67
2022-10-15T19:56:33.114Z,12.77
2022-10-15T19:59:04.632Z,14.35
2022-10-15T20:01:31.876Z,15.82
2022-10-15T20:04:03.301Z,18.25
2022-10-15T20:06:33.886Z,17.75
2022-10-15T20:09:02.262Z,13.85
2022-10-15T20:11:29.364Z,20.92
2022-10-15T20:13:56.534Z,15.93
2022-10-15T20:16:24.792Z,12.63
2022-10-15T20:18:52.681Z,14.48
2022-10-15T20:21:19.768Z,19.30
2022-10-15T20:23:47.917Z,13.02
2022-10-15T20:26:16.210Z,21.38
2022-10-15T20:28:45.361Z,16.40
2022-10-15T20:31:20.109Z,16.88
2022-10-15T20:33:49.022Z,21.98
2022-10-15T20:36:22.617Z,17.17
2022-10-15T20:38:51.348Z,17.27
2022-10-15T20:41:18.937Z,17.55
2022-10-15T20:43:47.251Z,14.80
2022-10-15T20:46:21.596Z,19.23
2022-10-15T20:48:48.960Z,18.58
2022-10-15T20:51:18.668Z,19.60
2022-10-15T20:53:46.368Z,19.27
2022-10-15T20:56:13.830Z,20.65
2022-10-15T20:58:40.891Z,14.80
2022-10-15T21:01:08.097Z,16.05
2022-10-15T21:03:35.243Z,18.50
2022-10-15T21:06:02.256Z,17.58
2022-10-15T21:08:29.286Z,15.35
2022-10-15T21:11:06.952Z,19.35
2022-10-15T21:13:34.555Z,19.27
2022-10-15T21:16:02.982Z,17.60
2022-10-15T21:18:29.976Z,15.50
2022-10-15T21:21:08.411Z,18.40
2022-10-15T21:23:36.872Z,14.05
2022-10-15T21:26:08.540Z,21.35
2022-10-15T21:28:36.349Z,19.05
2022-10-15T21:31:10.022Z,16.65
2022-10-15T21:33:37.687Z,16.35
2022-10-15T21:36:15.934Z,10.80
2022-10-15T21:38:43.016Z,15.35
2022-10-15T21:41:10.118Z,14.63
2022-10-15T21:43:37.235Z,15.10
2022-10-15T21:46:14.410Z,10.15
2022-10-15T21:48:42.873Z,11.27
2022-10-15T21:51:18.919Z,16.73
2022-10-15T21:53:46.797Z,14.27
2022-10-15T21:56:14.162Z,12.15
2022-10-15T21:58:41.614Z,11.88
2022-10-15T22:01:13.578Z,13.43
2022-10-15T22:03:43.379Z,20.70
2022-10-15T22:06:11.224Z,17.25
2022-10-15T22:08:38.545Z,10.40
2022-10-15T22:11:13.381Z,14.25
2022-10-15T22:13:43.912Z,11.60
2022-10-15T22:16:11.618Z,14.70
2022-10-15T22:18:39.397Z,14.10
2022-10-15T22:21:16.551Z,10.52
2022-10-15T22:23:52.550Z,10.27
2022-10-15T22:26:21.673Z,19.15
2022-10-15T22:28:48.664Z,10.43
2022-10-15T22:31:17.285Z,24.30
2022-10-15T22:33:45.878Z,13.90
2022-10-15T22:36:19.075Z,16.85
2022-10-15T22:38:48.566Z,12.90
2022-10-15T22:41:16.481Z,14.90
2022-10-15T22:43:43.513Z,20.40
2022-10-15T22:46:11.003Z,12.77
2022-10-15T22:48:40.515Z,15.00
2022-10-15T22:51:09.762Z,12.05
2022-10-15T22:53:36.842Z,14.18
2022-10-15T22:56:11.098Z,11.93
2022-10-15T22:58:38.153Z,13.18
2022-10-15T23:01:13.473Z,14.00
2022-10-15T23:03:43.347Z,14.27
2022-10-15T23:06:10.846Z,15.27
2022-10-15T23:08:38.579Z,12.65
2022-10-15T23:11:09.378Z,13.32
2022-10-15T23:13:38.339Z,17.25
2022-10-15T23:16:20.129Z,13.10
2022-10-15T23:18:51.530Z,15.55
2022-10-15T23:21:25.564Z,24.80
2022-10-15T23:23:52.515Z,15.57
2022-10-15T23:26:19.509Z,16.00
2022-10-15T23:28:51.663Z,21.60
2022-10-15T23:31:20.821Z,18.88
2022-10-15T23:33:47.816Z,16.10
2022-10-15T23:36:15.264Z,21.13
2022-10-15T23:38:42.271Z,24.27
2022-10-15T23:41:10.636Z,16.77
2022-10-15T23:43:38.256Z,14.35
2022-10-15T23:46:05.337Z,19.15
2022-10-15T23:48:32.399Z,15.82
2022-10-15T23:51:02.587Z,14.55
2022-10-15T23:53:33.088Z,15.05
2022-10-15T23:56:02.965Z,15.25
2022-10-15T23:58:32.388Z,19.15
